sensor_id;sensor_type;location;lat;lon;timestamp;pressure;altitude;pressure_sealevel;temperature;humidity
69574;BME280;62840;52.366;5.980;2023-07-30T00:00:51;100757.72;;;16.71;68.94
69574;BME280;62840;52.366;5.980;2023-07-30T00:03:17;100758.91;;;16.68;68.98
69574;BME280;62840;52.366;5.980;2023-07-30T00:05:54;100765.13;;;16.69;68.95
69574;BME280;62840;52.366;5.980;2023-07-30T00:08:20;100769.84;;;16.67;69.18
69574;BME280;62840;52.366;5.980;2023-07-30T00:10:49;100764.66;;;16.65;69.13
69574;BME280;62840;52.366;5.980;2023-07-30T00:13:18;100765.78;;;16.63;69.09
69574;BME280;62840;52.366;5.980;2023-07-30T00:15:46;100764.13;;;16.62;69.15
69574;BME280;62840;52.366;5.980;2023-07-30T00:18:13;100764.13;;;16.62;69.19
69574;BME280;62840;52.366;5.980;2023-07-30T00:20:45;100760.75;;;16.60;68.90
69574;BME280;62840;52.366;5.980;2023-07-30T00:23:17;100763.47;;;16.60;69.36
69574;BME280;62840;52.366;5.980;2023-07-30T00:25:45;100767.16;;;16.59;69.28
69574;BME280;62840;52.366;5.980;2023-07-30T00:28:11;100770.84;;;16.58;69.04
69574;BME280;62840;52.366;5.980;2023-07-30T00:30:36;100766.50;;;16.57;69.05
69574;BME280;62840;52.366;5.980;2023-07-30T00:33:02;100761.09;;;16.57;69.02
69574;BME280;62840;52.366;5.980;2023-07-30T00:35:30;100766.81;;;16.54;69.32
69574;BME280;62840;52.366;5.980;2023-07-30T00:37:57;100764.47;;;16.51;68.89
69574;BME280;62840;52.366;5.980;2023-07-30T00:40:29;100762.78;;;16.50;69.28
69574;BME280;62840;52.366;5.980;2023-07-30T00:42:55;100764.81;;;16.47;69.14
69574;BME280;62840;52.366;5.980;2023-07-30T00:45:23;100767.50;;;16.47;69.03
69574;BME280;62840;52.366;5.980;2023-07-30T00:47:50;100766.63;;;16.47;69.25
69574;BME280;62840;52.366;5.980;2023-07-30T00:50:18;100771.03;;;16.48;69.21
69574;BME280;62840;52.366;5.980;2023-07-30T00:52:44;100765.50;;;16.50;68.77
69574;BME280;62840;52.366;5.980;2023-07-30T00:55:11;100770.88;;;16.50;68.92
69574;BME280;62840;52.366;5.980;2023-07-30T00:57:41;100764.81;;;16.47;68.91
69574;BME280;62840;52.366;5.980;2023-07-30T01:00:08;100768.50;;;16.46;68.79
69574;BME280;62840;52.366;5.980;2023-07-30T01:02:38;100768.50;;;16.46;68.82
69574;BME280;62840;52.366;5.980;2023-07-30T01:05:05;100762.44;;;16.44;68.65
69574;BME280;62840;52.366;5.980;2023-07-30T01:07:31;100766.97;;;16.44;68.63
69574;BME280;62840;52.366;5.980;2023-07-30T01:09:58;100764.44;;;16.42;68.77
69574;BME280;62840;52.366;5.980;2023-07-30T01:12:25;100778.94;;;16.41;68.66
69574;BME280;62840;52.366;5.980;2023-07-30T01:14:56;100766.47;;;16.40;68.88
69574;BME280;62840;52.366;5.980;2023-07-30T01:17:24;100766.47;;;16.40;69.01
69574;BME280;62840;52.366;5.980;2023-07-30T01:19:52;100770.19;;;16.39;68.89
69574;BME280;62840;52.366;5.980;2023-07-30T01:22:21;100762.94;;;16.40;68.67
69574;BME280;62840;52.366;5.980;2023-07-30T01:24:47;100771.84;;;16.40;68.60
69574;BME280;62840;52.366;5.980;2023-07-30T01:27:18;100778.94;;;16.41;68.63
69574;BME280;62840;52.366;5.980;2023-07-30T01:29:52;100776.25;;;16.41;68.65
69574;BME280;62840;52.366;5.980;2023-07-30T01:32:26;100778.94;;;16.41;68.72
69574;BME280;62840;52.366;5.980;2023-07-30T01:34:54;100784.31;;;16.41;68.86
69574;BME280;62840;52.366;5.980;2023-07-30T01:37:25;100785.16;;;16.42;68.49
69574;BME280;62840;52.366;5.980;2023-07-30T01:39:53;100783.47;;;16.41;68.47
69574;BME280;62840;52.366;5.980;2023-07-30T01:42:20;100780.59;;;16.42;68.78
69574;BME280;62840;52.366;5.980;2023-07-30T01:44:46;100784.16;;;16.43;68.56
69574;BME280;62840;52.366;5.980;2023-07-30T01:47:11;100794.94;;;16.43;68.48
69574;BME280;62840;52.366;5.980;2023-07-30T01:49:37;100787.69;;;16.43;68.45
69574;BME280;62840;52.366;5.980;2023-07-30T01:52:03;100781.47;;;16.43;68.68
69574;BME280;62840;52.366;5.980;2023-07-30T01:54:32;100783.28;;;16.42;68.95
69574;BME280;62840;52.366;5.980;2023-07-30T01:56:59;100785.97;;;16.42;68.35
69574;BME280;62840;52.366;5.980;2023-07-30T01:59:25;100794.06;;;16.42;68.89
69574;BME280;62840;52.366;5.980;2023-07-30T02:01:51;100795.09;;;16.41;68.73
69574;BME280;62840;52.366;5.980;2023-07-30T02:04:16;100785.31;;;16.40;68.70
69574;BME280;62840;52.366;5.980;2023-07-30T02:06:42;100788.00;;;16.40;68.55
69574;BME280;62840;52.366;5.980;2023-07-30T02:09:08;100793.38;;;16.40;69.00
69574;BME280;62840;52.366;5.980;2023-07-30T02:11:36;100789.84;;;16.40;69.07
69574;BME280;62840;52.366;5.980;2023-07-30T02:14:02;100793.38;;;16.40;68.66
69574;BME280;62840;52.366;5.980;2023-07-30T02:16:27;100788.69;;;16.42;68.77
69574;BME280;62840;52.366;5.980;2023-07-30T02:18:53;100788.69;;;16.42;68.72
69574;BME280;62840;52.366;5.980;2023-07-30T02:21:19;100791.38;;;16.42;68.60
69574;BME280;62840;52.366;5.980;2023-07-30T02:23:45;100791.38;;;16.42;68.78
69574;BME280;62840;52.366;5.980;2023-07-30T02:26:10;100794.25;;;16.41;68.73
69574;BME280;62840;52.366;5.980;2023-07-30T02:28:39;100790.69;;;16.40;68.73
69574;BME280;62840;52.366;5.980;2023-07-30T02:31:04;100788.00;;;16.40;68.89
69574;BME280;62840;52.366;5.980;2023-07-30T02:33:30;100782.63;;;16.40;68.60
69574;BME280;62840;52.366;5.980;2023-07-30T02:35:56;100789.84;;;16.40;68.56
69574;BME280;62840;52.366;5.980;2023-07-30T02:38:22;100786.31;;;16.39;68.83
69574;BME280;62840;52.366;5.980;2023-07-30T02:40:47;100794.41;;;16.39;68.62
69574;BME280;62840;52.366;5.980;2023-07-30T02:43:13;100785.31;;;16.40;68.96
69574;BME280;62840;52.366;5.980;2023-07-30T02:45:41;100782.63;;;16.40;68.97
69574;BME280;62840;52.366;5.980;2023-07-30T02:48:07;100785.50;;;16.39;69.15
69574;BME280;62840;52.366;5.980;2023-07-30T02:50:33;100790.03;;;16.38;69.34
69574;BME280;62840;52.366;5.980;2023-07-30T02:52:58;100784.66;;;16.38;69.22
69574;BME280;62840;52.366;5.980;2023-07-30T02:55:24;100785.50;;;16.39;69.02
69574;BME280;62840;52.366;5.980;2023-07-30T02:57:50;100790.88;;;16.39;68.82
69574;BME280;62840;52.366;5.980;2023-07-30T03:00:16;100791.72;;;16.39;69.38
69574;BME280;62840;52.366;5.980;2023-07-30T03:02:45;100797.09;;;16.39;69.28
69574;BME280;62840;52.366;5.980;2023-07-30T03:05:11;100784.66;;;16.38;69.36
69574;BME280;62840;52.366;5.980;2023-07-30T03:07:37;100789.19;;;16.38;69.55
69574;BME280;62840;52.366;5.980;2023-07-30T03:10:04;100788.34;;;16.37;69.19
69574;BME280;62840;52.366;5.980;2023-07-30T03:12:30;100787.50;;;16.37;69.41
69574;BME280;62840;52.366;5.980;2023-07-30T03:14:56;100790.03;;;16.38;69.37
69574;BME280;62840;52.366;5.980;2023-07-30T03:17:22;100793.72;;;16.37;69.14
69574;BME280;62840;52.366;5.980;2023-07-30T03:19:50;100790.03;;;16.38;69.62
69574;BME280;62840;52.366;5.980;2023-07-30T03:22:16;100797.09;;;16.39;69.47
69574;BME280;62840;52.366;5.980;2023-07-30T03:24:42;100788.00;;;16.40;69.52
69574;BME280;62840;52.366;5.980;2023-07-30T03:27:07;100784.31;;;16.41;69.77
69574;BME280;62840;52.366;5.980;2023-07-30T03:29:33;100792.22;;;16.43;69.28
69574;BME280;62840;52.366;5.980;2023-07-30T03:31:59;100793.06;;;16.43;69.64
69574;BME280;62840;52.366;5.980;2023-07-30T03:34:24;100792.22;;;16.43;69.85
69574;BME280;62840;52.366;5.980;2023-07-30T03:36:53;100798.44;;;16.43;69.66
69574;BME280;62840;52.366;5.980;2023-07-30T03:39:18;100784.31;;;16.41;69.79
69574;BME280;62840;52.366;5.980;2023-07-30T03:41:44;100789.69;;;16.41;69.46
69574;BME280;62840;52.366;5.980;2023-07-30T03:44:10;100785.16;;;16.42;69.52
69574;BME280;62840;52.366;5.980;2023-07-30T03:46:36;100787.00;;;16.41;69.49
69574;BME280;62840;52.366;5.980;2023-07-30T03:49:01;100792.38;;;16.41;70.03
69574;BME280;62840;52.366;5.980;2023-07-30T03:51:27;100791.38;;;16.42;69.78
69574;BME280;62840;52.366;5.980;2023-07-30T03:53:55;100799.44;;;16.42;69.72
69574;BME280;62840;52.366;5.980;2023-07-30T03:56:21;100793.38;;;16.40;69.51
69574;BME280;62840;52.366;5.980;2023-07-30T03:58:47;100791.72;;;16.39;69.82
69574;BME280;62840;52.366;5.980;2023-07-30T04:01:13;100791.72;;;16.39;69.83
69574;BME280;62840;52.366;5.980;2023-07-30T04:03:38;100802.47;;;16.39;70.14
69574;BME280;62840;52.366;5.980;2023-07-30T04:06:04;100797.94;;;16.40;69.75
69574;BME280;62840;52.366;5.980;2023-07-30T04:08:30;100794.41;;;16.39;70.25
69574;BME280;62840;52.366;5.980;2023-07-30T04:10:58;100797.09;;;16.39;70.22
69574;BME280;62840;52.366;5.980;2023-07-30T04:13:24;100793.72;;;16.37;70.17
69574;BME280;62840;52.366;5.980;2023-07-30T04:15:50;100802.81;;;16.36;70.17
69574;BME280;62840;52.366;5.980;2023-07-30T04:18:15;100808.22;;;16.36;70.33
69574;BME280;62840;52.366;5.980;2023-07-30T04:20:41;100801.13;;;16.35;69.98
69574;BME280;62840;52.366;5.980;2023-07-30T04:23:07;100798.44;;;16.35;70.25
69574;BME280;62840;52.366;5.980;2023-07-30T04:25:33;100804.50;;;16.37;70.32
69574;BME280;62840;52.366;5.980;2023-07-30T04:28:01;100797.44;;;16.36;70.24
69574;BME280;62840;52.366;5.980;2023-07-30T04:30:27;100801.13;;;16.35;70.50
69574;BME280;62840;52.366;5.980;2023-07-30T04:32:52;100802.81;;;16.36;70.42
69574;BME280;62840;52.366;5.980;2023-07-30T04:35:18;100801.81;;;16.37;70.74
69574;BME280;62840;52.366;5.980;2023-07-30T04:37:44;100812.41;;;16.39;70.60
69574;BME280;62840;52.366;5.980;2023-07-30T04:40:10;100797.09;;;16.39;70.26
69574;BME280;62840;52.366;5.980;2023-07-30T04:42:36;100796.06;;;16.40;70.29
69574;BME280;62840;52.366;5.980;2023-07-30T04:45:06;100805.84;;;16.41;70.55
69574;BME280;62840;52.366;5.980;2023-07-30T04:47:32;100806.53;;;16.43;70.70
69574;BME280;62840;52.366;5.980;2023-07-30T04:49:58;100807.22;;;16.45;70.34
69574;BME280;62840;52.366;5.980;2023-07-30T04:52:24;100806.19;;;16.46;70.86
69574;BME280;62840;52.366;5.980;2023-07-30T04:54:49;100817.63;;;16.48;70.65
69574;BME280;62840;52.366;5.980;2023-07-30T04:57:15;100810.56;;;16.47;70.85
69574;BME280;62840;52.366;5.980;2023-07-30T04:59:41;100815.63;;;16.51;70.61
69574;BME280;62840;52.366;5.980;2023-07-30T05:02:09;100817.28;;;16.52;71.08
69574;BME280;62840;52.366;5.980;2023-07-30T05:04:35;100815.28;;;16.54;71.08
69574;BME280;62840;52.366;5.980;2023-07-30T05:07:01;100818.66;;;16.56;70.64
69574;BME280;62840;52.366;5.980;2023-07-30T05:09:26;100825.72;;;16.57;71.14
69574;BME280;62840;52.366;5.980;2023-07-30T05:11:52;100829.09;;;16.59;70.78
69574;BME280;62840;52.366;5.980;2023-07-30T05:14:18;100833.31;;;16.61;70.71
69574;BME280;62840;52.366;5.980;2023-07-30T05:16:43;100827.72;;;16.63;70.75
69574;BME280;62840;52.366;5.980;2023-07-30T05:19:12;100840.88;;;16.66;70.95
69574;BME280;62840;52.366;5.980;2023-07-30T05:21:37;100833.47;;;16.68;71.19
69574;BME280;62840;52.366;5.980;2023-07-30T05:24:04;100838.53;;;16.71;71.23
69574;BME280;62840;52.366;5.980;2023-07-30T05:26:30;100834.84;;;16.72;70.72
69574;BME280;62840;52.366;5.980;2023-07-30T05:28:55;100839.88;;;16.75;71.17
69574;BME280;62840;52.366;5.980;2023-07-30T05:31:21;100837.88;;;16.77;70.84
69574;BME280;62840;52.366;5.980;2023-07-30T05:33:47;100846.63;;;16.79;71.18
69574;BME280;62840;52.366;5.980;2023-07-30T05:36:15;100839.25;;;16.81;71.11
69574;BME280;62840;52.366;5.980;2023-07-30T05:38:41;100842.63;;;16.83;71.48
69574;BME280;62840;52.366;5.980;2023-07-30T05:41:07;100851.34;;;16.85;71.49
69574;BME280;62840;52.366;5.980;2023-07-30T05:43:33;100844.97;;;16.86;71.52
69574;BME280;62840;52.366;5.980;2023-07-30T05:45:59;100856.41;;;16.88;71.49
69574;BME280;62840;52.366;5.980;2023-07-30T05:48:25;100856.06;;;16.92;71.42
69574;BME280;62840;52.366;5.980;2023-07-30T05:50:50;100844.31;;;16.93;71.22
69574;BME280;62840;52.366;5.980;2023-07-30T05:53:19;100846.66;;;16.96;71.53
69574;BME280;62840;52.366;5.980;2023-07-30T05:55:44;100846.28;;;16.99;71.28
69574;BME280;62840;52.366;5.980;2023-07-30T05:58:10;100843.97;;;17.04;71.54
69574;BME280;62840;52.366;5.980;2023-07-30T06:00:36;100841.06;;;17.05;71.64
69574;BME280;62840;52.366;5.980;2023-07-30T06:03:02;100846.97;;;17.09;71.42
69574;BME280;62840;52.366;5.980;2023-07-30T06:05:28;100842.94;;;17.13;71.15
69574;BME280;62840;52.366;5.980;2023-07-30T06:07:53;100839.91;;;17.16;71.60
69574;BME280;62840;52.366;5.980;2023-07-30T06:10:22;100839.53;;;17.19;71.42
69574;BME280;62840;52.366;5.980;2023-07-30T06:12:47;100843.59;;;17.23;71.25
69574;BME280;62840;52.366;5.980;2023-07-30T06:15:13;100844.94;;;17.27;71.21
69574;BME280;62840;52.366;5.980;2023-07-30T06:17:39;100842.56;;;17.33;71.35
69574;BME280;62840;52.366;5.980;2023-07-30T06:20:06;100840.22;;;17.38;71.71
69574;BME280;62840;52.366;5.980;2023-07-30T06:22:33;100837.00;;;17.42;71.73
69574;BME280;62840;52.366;5.980;2023-07-30T06:24:59;100839.19;;;17.47;71.23
69574;BME280;62840;52.366;5.980;2023-07-30T06:27:27;100837.81;;;17.51;71.62
69574;BME280;62840;52.366;5.980;2023-07-30T06:29:53;100843.53;;;17.56;71.52
69574;BME280;62840;52.366;5.980;2023-07-30T06:32:19;100844.00;;;17.60;71.20
69574;BME280;62840;52.366;5.980;2023-07-30T06:34:45;100847.06;;;17.65;70.87
69574;BME280;62840;52.366;5.980;2023-07-30T06:37:10;100840.09;;;17.70;71.23
69574;BME280;62840;52.366;5.980;2023-07-30T06:39:36;100851.25;;;17.76;70.78
69574;BME280;62840;52.366;5.980;2023-07-30T06:42:02;100844.50;;;17.80;71.03
69574;BME280;62840;52.366;5.980;2023-07-30T06:44:31;100845.16;;;17.82;71.08
69574;BME280;62840;52.366;5.980;2023-07-30T06:46:57;100849.19;;;17.86;71.13
69574;BME280;62840;52.366;5.980;2023-07-30T06:49:22;100850.53;;;17.90;71.14
69574;BME280;62840;52.366;5.980;2023-07-30T06:51:48;100846.63;;;17.92;71.00
69574;BME280;62840;52.366;5.980;2023-07-30T06:54:14;100843.78;;;17.94;70.55
69574;BME280;62840;52.366;5.980;2023-07-30T06:56:39;100841.06;;;17.94;70.87
69574;BME280;62840;52.366;5.980;2023-07-30T06:59:05;100840.03;;;17.95;70.65
69574;BME280;62840;52.366;5.980;2023-07-30T07:01:33;100842.75;;;17.95;70.75
69574;BME280;62840;52.366;5.980;2023-07-30T07:03:59;100843.78;;;17.94;70.41
69574;BME280;62840;52.366;5.980;2023-07-30T07:06:25;100850.84;;;17.95;70.53
69574;BME280;62840;52.366;5.980;2023-07-30T07:08:51;100850.84;;;17.95;70.19
69574;BME280;62840;52.366;5.980;2023-07-30T07:11:16;100841.06;;;17.94;70.35
69574;BME280;62840;52.366;5.980;2023-07-30T07:13:42;100846.47;;;17.94;70.57
69574;BME280;62840;52.366;5.980;2023-07-30T07:16:08;100848.16;;;17.95;70.57
69574;BME280;62840;52.366;5.980;2023-07-30T07:18:36;100844.44;;;17.96;70.25
69574;BME280;62840;52.366;5.980;2023-07-30T07:21:02;100845.28;;;17.97;70.24
69574;BME280;62840;52.366;5.980;2023-07-30T07:23:28;100849.84;;;17.96;70.12
69574;BME280;62840;52.366;5.980;2023-07-30T07:25:54;100850.50;;;17.98;70.11
69574;BME280;62840;52.366;5.980;2023-07-30T07:28:19;100853.22;;;17.98;70.45
69574;BME280;62840;52.366;5.980;2023-07-30T07:30:45;100851.16;;;18.00;70.26
69574;BME280;62840;52.366;5.980;2023-07-30T07:33:11;100853.00;;;18.00;69.90
69574;BME280;62840;52.366;5.980;2023-07-30T07:35:39;100860.28;;;17.99;69.89
69574;BME280;62840;52.366;5.980;2023-07-30T07:38:05;100853.84;;;18.00;70.02
69574;BME280;62840;52.366;5.980;2023-07-30T07:40:36;100852.84;;;18.01;70.11
69574;BME280;62840;52.366;5.980;2023-07-30T07:43:02;100852.84;;;18.01;70.00
69574;BME280;62840;52.366;5.980;2023-07-30T07:45:28;100861.63;;;18.03;69.84
69574;BME280;62840;52.366;5.980;2023-07-30T07:47:53;100861.63;;;18.03;70.01
69574;BME280;62840;52.366;5.980;2023-07-30T07:50:20;100859.59;;;18.05;69.92
69574;BME280;62840;52.366;5.980;2023-07-30T07:52:48;100859.59;;;18.05;69.87
69574;BME280;62840;52.366;5.980;2023-07-30T07:55:14;100853.00;;;18.08;69.58
69574;BME280;62840;52.366;5.980;2023-07-30T07:57:41;100862.59;;;18.10;69.71
69574;BME280;62840;52.366;5.980;2023-07-30T08:00:08;100865.59;;;18.16;69.98
69574;BME280;62840;52.366;5.980;2023-07-30T08:02:34;100864.91;;;18.22;69.85
69574;BME280;62840;52.366;5.980;2023-07-30T08:05:00;100871.63;;;18.26;69.42
69574;BME280;62840;52.366;5.980;2023-07-30T08:07:26;100867.19;;;18.33;69.25
69574;BME280;62840;52.366;5.980;2023-07-30T08:09:54;100866.50;;;18.39;69.48
69574;BME280;62840;52.366;5.980;2023-07-30T08:12:20;100857.66;;;18.45;68.86
69574;BME280;62840;52.366;5.980;2023-07-30T08:14:45;100865.44;;;18.48;69.16
69574;BME280;62840;52.366;5.980;2023-07-30T08:17:11;100868.78;;;18.50;68.71
69574;BME280;62840;52.366;5.980;2023-07-30T08:19:37;100861.69;;;18.49;68.47
69574;BME280;62840;52.366;5.980;2023-07-30T08:22:03;100866.09;;;18.50;68.74
69574;BME280;62840;52.366;5.980;2023-07-30T08:24:29;100856.97;;;18.51;68.28
69574;BME280;62840;52.366;5.980;2023-07-30T08:26:57;100854.25;;;18.51;68.49
69574;BME280;62840;52.366;5.980;2023-07-30T08:29:23;100856.97;;;18.51;68.40
69574;BME280;62840;52.366;5.980;2023-07-30T08:31:48;100852.59;;;18.50;68.33
69574;BME280;62840;52.366;5.980;2023-07-30T08:34:14;100853.59;;;18.49;68.31
69574;BME280;62840;52.366;5.980;2023-07-30T08:36:40;100860.03;;;18.48;68.20
69574;BME280;62840;52.366;5.980;2023-07-30T08:39:06;100855.63;;;18.47;68.20
69574;BME280;62840;52.366;5.980;2023-07-30T08:41:32;100854.63;;;18.48;68.27
69574;BME280;62840;52.366;5.980;2023-07-30T08:44:00;100862.72;;;18.48;67.77
69574;BME280;62840;52.366;5.980;2023-07-30T08:46:27;100859.19;;;18.48;67.75
69574;BME280;62840;52.366;5.980;2023-07-30T08:48:52;100858.31;;;18.47;67.96
69574;BME280;62840;52.366;5.980;2023-07-30T08:51:19;100865.75;;;18.45;67.87
69574;BME280;62840;52.366;5.980;2023-07-30T08:53:47;100869.50;;;18.44;67.62
69574;BME280;62840;52.366;5.980;2023-07-30T08:56:14;100866.13;;;18.42;67.72
69574;BME280;62840;52.366;5.980;2023-07-30T08:58:40;100876.25;;;18.40;67.66
69574;BME280;62840;52.366;5.980;2023-07-30T09:01:12;100882.69;;;18.39;68.00
69574;BME280;62840;52.366;5.980;2023-07-30T09:03:40;100887.06;;;18.40;67.62
69574;BME280;62840;52.366;5.980;2023-07-30T09:06:06;100891.81;;;18.38;67.80
69574;BME280;62840;52.366;5.980;2023-07-30T09:08:32;100891.81;;;18.38;68.03
69574;BME280;62840;52.366;5.980;2023-07-30T09:10:59;100897.56;;;18.35;67.98
69574;BME280;62840;52.366;5.980;2023-07-30T09:13:36;100893.38;;;18.32;68.52
69574;BME280;62840;52.366;5.980;2023-07-30T09:16:10;100898.94;;;18.31;68.40
69574;BME280;62840;52.366;5.980;2023-07-30T09:18:40;100887.47;;;18.29;68.39
69574;BME280;62840;52.366;5.980;2023-07-30T09:21:07;100886.47;;;18.30;68.33
69574;BME280;62840;52.366;5.980;2023-07-30T09:23:39;100896.22;;;18.31;68.14
69574;BME280;62840;52.366;5.980;2023-07-30T09:26:05;100887.13;;;18.32;68.12
69574;BME280;62840;52.366;5.980;2023-07-30T09:28:31;100896.22;;;18.31;67.77
69574;BME280;62840;52.366;5.980;2023-07-30T09:30:59;100895.88;;;18.34;67.68
69574;BME280;62840;52.366;5.980;2023-07-30T09:33:28;100899.22;;;18.36;68.12
69574;BME280;62840;52.366;5.980;2023-07-30T09:35:56;100890.13;;;18.37;67.76
69574;BME280;62840;52.366;5.980;2023-07-30T09:38:24;100891.47;;;18.41;67.90
69574;BME280;62840;52.366;5.980;2023-07-30T09:40:50;100891.94;;;18.45;68.02
69574;BME280;62840;52.366;5.980;2023-07-30T09:43:16;100902.53;;;18.54;68.05
69574;BME280;62840;52.366;5.980;2023-07-30T09:45:44;100899.44;;;18.66;67.98
69574;BME280;62840;52.366;5.980;2023-07-30T09:48:11;100900.88;;;18.76;67.78
69574;BME280;62840;52.366;5.980;2023-07-30T09:50:40;100904.38;;;18.85;67.65
69574;BME280;62840;52.366;5.980;2023-07-30T09:53:07;100894.88;;;18.89;67.55
69574;BME280;62840;52.366;5.980;2023-07-30T09:55:34;100899.59;;;18.95;67.54
69574;BME280;62840;52.366;5.980;2023-07-30T09:58:00;100890.09;;;19.00;67.69
69574;BME280;62840;52.366;5.980;2023-07-30T10:00:27;100898.84;;;19.02;67.76
69574;BME280;62840;52.366;5.980;2023-07-30T10:02:55;100895.78;;;19.05;67.43
69574;BME280;62840;52.366;5.980;2023-07-30T10:05:29;100907.28;;;19.07;67.44
69574;BME280;62840;52.366;5.980;2023-07-30T10:08:05;100903.53;;;19.08;67.17
69574;BME280;62840;52.366;5.980;2023-07-30T10:10:34;100905.22;;;19.09;67.35
69574;BME280;62840;52.366;5.980;2023-07-30T10:13:04;100913.13;;;19.10;67.23
69574;BME280;62840;52.366;5.980;2023-07-30T10:15:34;100906.56;;;19.13;66.79
69574;BME280;62840;52.366;5.980;2023-07-30T10:18:01;100909.06;;;19.14;66.79
69574;BME280;62840;52.366;5.980;2023-07-30T10:20:27;100908.22;;;19.14;66.83
69574;BME280;62840;52.366;5.980;2023-07-30T10:22:55;100931.72;;;19.13;66.91
69574;BME280;62840;52.366;5.980;2023-07-30T10:25:28;100930.56;;;19.08;66.84
69574;BME280;62840;52.366;5.980;2023-07-30T10:27:55;100929.59;;;19.01;67.38
69574;BME280;62840;52.366;5.980;2023-07-30T10:30:21;100940.47;;;18.92;67.84
69574;BME280;62840;52.366;5.980;2023-07-30T10:33:02;100928.41;;;18.80;68.42
69574;BME280;62840;52.366;5.980;2023-07-30T10:35:36;100927.28;;;18.66;68.37
69574;BME280;62840;52.366;5.980;2023-07-30T10:38:15;100934.59;;;18.58;68.61
69574;BME280;62840;52.366;5.980;2023-07-30T10:40:59;100933.94;;;18.47;68.87
69574;BME280;62840;52.366;5.980;2023-07-30T10:43:28;100935.00;;;18.38;69.38
69574;BME280;62840;52.366;5.980;2023-07-30T10:45:54;100943.84;;;18.32;69.44
69574;BME280;62840;52.366;5.980;2023-07-30T10:48:29;100950.59;;;18.28;69.68
69574;BME280;62840;52.366;5.980;2023-07-30T10:50:56;100948.22;;;18.25;69.62
69574;BME280;62840;52.366;5.980;2023-07-30T10:53:22;100949.25;;;18.24;69.68
69574;BME280;62840;52.366;5.980;2023-07-30T10:55:50;100947.56;;;18.23;70.13
69574;BME280;62840;52.366;5.980;2023-07-30T10:58:18;100940.13;;;18.25;70.46
69574;BME280;62840;52.366;5.980;2023-07-30T11:00:43;100952.63;;;18.26;70.42
69574;BME280;62840;52.366;5.980;2023-07-30T11:03:09;100948.88;;;18.27;70.40
69574;BME280;62840;52.366;5.980;2023-07-30T11:05:37;100948.88;;;18.27;70.83
69574;BME280;62840;52.366;5.980;2023-07-30T11:08:03;100947.06;;;18.27;70.36
69574;BME280;62840;52.366;5.980;2023-07-30T11:10:29;100948.88;;;18.27;70.83
69574;BME280;62840;52.366;5.980;2023-07-30T11:12:58;100957.66;;;18.29;70.78
69574;BME280;62840;52.366;5.980;2023-07-30T11:15:24;100951.94;;;18.32;71.13
69574;BME280;62840;52.366;5.980;2023-07-30T11:17:51;100952.91;;;18.39;71.38
69574;BME280;62840;52.366;5.980;2023-07-30T11:20:23;100951.84;;;18.48;71.33
69574;BME280;62840;52.366;5.980;2023-07-30T11:22:50;100950.13;;;18.55;71.09
69574;BME280;62840;52.366;5.980;2023-07-30T11:25:16;100948.38;;;18.63;71.55
69574;BME280;62840;52.366;5.980;2023-07-30T11:27:46;100954.78;;;18.70;70.65
69574;BME280;62840;52.366;5.980;2023-07-30T11:30:14;100952.75;;;18.72;71.10
69574;BME280;62840;52.366;5.980;2023-07-30T11:32:41;100954.09;;;18.76;71.21
69574;BME280;62840;52.366;5.980;2023-07-30T11:35:08;100961.19;;;18.77;70.59
69574;BME280;62840;52.366;5.980;2023-07-30T11:37:34;100963.69;;;18.79;70.58
69574;BME280;62840;52.366;5.980;2023-07-30T11:40:01;100952.56;;;18.82;70.60
69574;BME280;62840;52.366;5.980;2023-07-30T11:42:27;100956.38;;;18.87;71.08
69574;BME280;62840;52.366;5.980;2023-07-30T11:44:53;100961.41;;;18.90;71.13
69574;BME280;62840;52.366;5.980;2023-07-30T11:47:23;100969.84;;;18.95;70.25
69574;BME280;62840;52.366;5.980;2023-07-30T11:49:55;100976.94;;;18.96;69.73
69574;BME280;62840;52.366;5.980;2023-07-30T11:52:21;100966.63;;;19.00;69.11
69574;BME280;62840;52.366;5.980;2023-07-30T11:54:46;100960.00;;;19.03;68.32
69574;BME280;62840;52.366;5.980;2023-07-30T11:57:12;100962.34;;;19.06;68.25
69574;BME280;62840;52.366;5.980;2023-07-30T11:59:38;100964.69;;;19.09;67.76
69574;BME280;62840;52.366;5.980;2023-07-30T12:02:05;100963.31;;;19.13;67.63
69574;BME280;62840;52.366;5.980;2023-07-30T12:04:42;100967.31;;;19.17;67.02
69574;BME280;62840;52.366;5.980;2023-07-30T12:07:09;100978.63;;;19.21;66.54
69574;BME280;62840;52.366;5.980;2023-07-30T12:09:35;100972.97;;;19.30;66.71
69574;BME280;62840;52.366;5.980;2023-07-30T12:12:02;100979.34;;;19.37;66.40
69574;BME280;62840;52.366;5.980;2023-07-30T12:14:29;100984.41;;;19.41;65.15
69574;BME280;62840;52.366;5.980;2023-07-30T12:17:08;100980.31;;;19.45;65.37
69574;BME280;62840;52.366;5.980;2023-07-30T12:19:36;100989.09;;;19.47;65.33
69574;BME280;62840;52.366;5.980;2023-07-30T12:22:02;100983.97;;;19.52;65.17
69574;BME280;62840;52.366;5.980;2023-07-30T12:24:29;100982.59;;;19.56;64.92
69574;BME280;62840;52.366;5.980;2023-07-30T12:26:54;100981.19;;;19.60;64.82
69574;BME280;62840;52.366;5.980;2023-07-30T12:29:20;100992.50;;;19.64;65.09
69574;BME280;62840;52.366;5.980;2023-07-30T12:31:46;100987.59;;;19.67;64.79
69574;BME280;62840;52.366;5.980;2023-07-30T12:34:12;100981.13;;;19.68;64.62
69574;BME280;62840;52.366;5.980;2023-07-30T12:36:40;100977.44;;;19.69;65.00
69574;BME280;62840;52.366;5.980;2023-07-30T12:39:06;100988.25;;;19.69;64.67
69574;BME280;62840;52.366;5.980;2023-07-30T12:41:32;100981.13;;;19.68;64.36
69574;BME280;62840;52.366;5.980;2023-07-30T12:43:57;100974.22;;;19.66;64.34
69574;BME280;62840;52.366;5.980;2023-07-30T12:46:24;100974.06;;;19.67;64.19
69574;BME280;62840;52.366;5.980;2023-07-30T12:48:51;100980.75;;;19.71;64.12